sensor_id;sensor_type;location;lat;lon;timestamp;pressure;altitude;pressure_sealevel;temperature;humidity
58534;BME280;44109;52.398;7.024;2023-11-21T00:01:08;100812.88;;;10.62;100.00
58534;BME280;44109;52.398;7.024;2023-11-21T00:03:37;100797.84;;;10.63;100.00
58534;BME280;44109;52.398;7.024;2023-11-21T00:06:04;100809.13;;;10.51;100.00
58534;BME280;44109;52.398;7.024;2023-11-21T00:08:35;100813.19;;;10.57;100.00
58534;BME280;44109;52.398;7.024;2023-11-21T00:11:03;100787.34;;;10.53;100.00
58534;BME280;44109;52.398;7.024;2023-11-21T00:13:32;100805.91;;;10.72;100.00
58534;BME280;44109;52.398;7.024;2023-11-21T00:15:59;100809.91;;;10.74;100.00
58534;BME280;44109;52.398;7.024;2023-11-21T00:18:27;100812.38;;;10.79;100.00
58534;BME280;44109;52.398;7.024;2023-11-21T00:20:55;100809.19;;;10.77;100.00
58534;BME280;44109;52.398;7.024;2023-11-21T00:23:24;100806.41;;;10.77;100.00
58534;BME280;44109;52.398;7.024;2023-11-21T00:25:52;100811.50;;;10.75;100.00
58534;BME280;44109;52.398;7.024;2023-11-21T00:28:20;100813.56;;;10.78;100.00
58534;BME280;44109;52.398;7.024;2023-11-21T00:30:48;100806.44;;;10.81;100.00
58534;BME280;44109;52.398;7.024;2023-11-21T00:33:15;100806.03;;;10.79;100.00
58534;BME280;44109;52.398;7.024;2023-11-21T00:35:43;100802.38;;;10.75;100.00
58534;BME280;44109;52.398;7.024;2023-11-21T00:38:12;100809.13;;;10.74;100.00
58534;BME280;44109;52.398;7.024;2023-11-21T00:40:39;100802.56;;;10.62;100.00
58534;BME280;44109;52.398;7.024;2023-11-21T00:43:06;100796.34;;;10.69;100.00
58534;BME280;44109;52.398;7.024;2023-11-21T00:45:34;100799.13;;;10.46;100.00
58534;BME280;44109;52.398;7.024;2023-11-21T00:48:02;100815.22;;;10.60;100.00
58534;BME280;44109;52.398;7.024;2023-11-21T00:50:30;100793.66;;;10.50;100.00
58534;BME280;44109;52.398;7.024;2023-11-21T00:52:58;100801.84;;;10.65;100.00
58534;BME280;44109;52.398;7.024;2023-11-21T00:55:27;100808.31;;;10.73;100.00
58534;BME280;44109;52.398;7.024;2023-11-21T00:57:55;100810.22;;;10.69;100.00
58534;BME280;44109;52.398;7.024;2023-11-21T01:00:24;100807.00;;;10.67;100.00
58534;BME280;44109;52.398;7.024;2023-11-21T01:02:51;100828.59;;;10.77;100.00
58534;BME280;44109;52.398;7.024;2023-11-21T01:05:19;100830.69;;;10.84;100.00
58534;BME280;44109;52.398;7.024;2023-11-21T01:07:46;100829.88;;;10.83;100.00
58534;BME280;44109;52.398;7.024;2023-11-21T01:10:14;100833.84;;;10.82;100.00
58534;BME280;44109;52.398;7.024;2023-11-21T01:12:44;100840.91;;;10.80;100.00
58534;BME280;44109;52.398;7.024;2023-11-21T01:15:12;100844.88;;;10.79;100.00
58534;BME280;44109;52.398;7.024;2023-11-21T01:17:39;100843.59;;;10.73;100.00
58534;BME280;44109;52.398;7.024;2023-11-21T01:20:07;100847.16;;;10.73;100.00
58534;BME280;44109;52.398;7.024;2023-11-21T01:22:38;100852.72;;;10.73;100.00
58534;BME280;44109;52.398;7.024;2023-11-21T01:25:06;100857.47;;;10.73;100.00
58534;BME280;44109;52.398;7.024;2023-11-21T01:27:33;100861.34;;;10.68;100.00
58534;BME280;44109;52.398;7.024;2023-11-21T01:30:03;100870.53;;;10.72;100.00
58534;BME280;44109;52.398;7.024;2023-11-21T01:32:33;100868.34;;;10.62;100.00
58534;BME280;44109;52.398;7.024;2023-11-21T01:35:01;100875.88;;;10.61;100.00
58534;BME280;44109;52.398;7.024;2023-11-21T01:37:28;100871.72;;;10.52;100.00
58534;BME280;44109;52.398;7.024;2023-11-21T01:39:56;100884.13;;;10.58;100.00
58534;BME280;44109;52.398;7.024;2023-11-21T01:42:24;100891.00;;;10.64;100.00
58534;BME280;44109;52.398;7.024;2023-11-21T01:44:52;100892.03;;;10.56;100.00
58534;BME280;44109;52.398;7.024;2023-11-21T01:47:22;100899.00;;;10.69;100.00
58534;BME280;44109;52.398;7.024;2023-11-21T01:49:50;100892.09;;;10.59;100.00
58534;BME280;44109;52.398;7.024;2023-11-21T01:52:17;100893.00;;;10.67;100.00
58534;BME280;44109;52.398;7.024;2023-11-21T01:54:45;100889.97;;;10.72;100.00
58534;BME280;44109;52.398;7.024;2023-11-21T01:57:13;100891.63;;;10.77;100.00
58534;BME280;44109;52.398;7.024;2023-11-21T01:59:42;100897.19;;;10.77;100.00
58534;BME280;44109;52.398;7.024;2023-11-21T02:02:11;100900.38;;;10.79;100.00
58534;BME280;44109;52.398;7.024;2023-11-21T02:04:40;100900.00;;;10.80;100.00
58534;BME280;44109;52.398;7.024;2023-11-21T02:07:07;100898.84;;;10.81;100.00
58534;BME280;44109;52.398;7.024;2023-11-21T02:09:36;100903.22;;;10.82;100.00
58534;BME280;44109;52.398;7.024;2023-11-21T02:12:05;100898.88;;;10.85;100.00
58534;BME280;44109;52.398;7.024;2023-11-21T02:14:33;100910.06;;;10.88;100.00
58534;BME280;44109;52.398;7.024;2023-11-21T02:17:00;100910.91;;;10.92;100.00
58534;BME280;44109;52.398;7.024;2023-11-21T02:19:29;100903.47;;;10.97;100.00
58534;BME280;44109;52.398;7.024;2023-11-21T02:21:59;100912.22;;;10.99;100.00
58534;BME280;44109;52.398;7.024;2023-11-21T02:24:32;100898.22;;;10.91;100.00
58534;BME280;44109;52.398;7.024;2023-11-21T02:26:59;100914.69;;;11.04;100.00
58534;BME280;44109;52.398;7.024;2023-11-21T02:29:26;100913.53;;;11.05;100.00
58534;BME280;44109;52.398;7.024;2023-11-21T02:31:54;100919.16;;;11.08;100.00
58534;BME280;44109;52.398;7.024;2023-11-21T02:34:23;100914.41;;;11.09;100.00
58534;BME280;44109;52.398;7.024;2023-11-21T02:36:50;100902.53;;;11.12;100.00
58534;BME280;44109;52.398;7.024;2023-11-21T02:39:18;100908.47;;;11.10;100.00
58534;BME280;44109;52.398;7.024;2023-11-21T02:41:49;100900.88;;;11.07;100.00
58534;BME280;44109;52.398;7.024;2023-11-21T02:44:17;100903.28;;;11.09;100.00
58534;BME280;44109;52.398;7.024;2023-11-21T02:46:44;100906.47;;;11.11;100.00
58534;BME280;44109;52.398;7.024;2023-11-21T02:49:12;100904.03;;;11.06;100.00
58534;BME280;44109;52.398;7.024;2023-11-21T02:51:40;100906.00;;;11.05;100.00
58534;BME280;44109;52.398;7.024;2023-11-21T02:54:08;100908.03;;;11.08;100.00
58534;BME280;44109;52.398;7.024;2023-11-21T02:56:35;100917.47;;;11.04;100.00
58534;BME280;44109;52.398;7.024;2023-11-21T02:59:04;100902.28;;;10.98;100.00
58534;BME280;44109;52.398;7.024;2023-11-21T03:01:32;100919.81;;;11.02;100.00
58534;BME280;44109;52.398;7.024;2023-11-21T03:03:59;100923.75;;;11.01;100.00
58534;BME280;44109;52.398;7.024;2023-11-21T03:06:27;100925.34;;;11.02;100.00
58534;BME280;44109;52.398;7.024;2023-11-21T03:08:55;100922.19;;;11.03;100.00
58534;BME280;44109;52.398;7.024;2023-11-21T03:11:22;100923.38;;;11.02;100.00
58534;BME280;44109;52.398;7.024;2023-11-21T03:13:49;100928.59;;;11.04;100.00
58534;BME280;44109;52.398;7.024;2023-11-21T03:16:18;100932.97;;;11.05;100.00
58534;BME280;44109;52.398;7.024;2023-11-21T03:18:46;100930.19;;;11.05;100.00
58534;BME280;44109;52.398;7.024;2023-11-21T03:21:14;100935.81;;;11.08;100.00
58534;BME280;44109;52.398;7.024;2023-11-21T03:23:41;100908.53;;;10.91;100.00
58534;BME280;44109;52.398;7.024;2023-11-21T03:26:11;100939.38;;;11.09;100.00
58534;BME280;44109;52.398;7.024;2023-11-21T03:28:39;100949.31;;;11.10;100.00
58534;BME280;44109;52.398;7.024;2023-11-21T03:31:07;100954.06;;;11.09;100.00
58534;BME280;44109;52.398;7.024;2023-11-21T03:33:36;100958.06;;;11.12;100.00
58534;BME280;44109;52.398;7.024;2023-11-21T03:36:04;100956.44;;;11.11;100.00
58534;BME280;44109;52.398;7.024;2023-11-21T03:38:33;100950.91;;;11.11;100.00
58534;BME280;44109;52.398;7.024;2023-11-21T03:41:01;100951.78;;;11.15;100.00
58534;BME280;44109;52.398;7.024;2023-11-21T03:43:28;100941.84;;;11.14;100.00
58534;BME280;44109;52.398;7.024;2023-11-21T03:45:56;100941.38;;;11.12;100.00
58534;BME280;44109;52.398;7.024;2023-11-21T03:48:23;100933.69;;;11.02;100.00
58534;BME280;44109;52.398;7.024;2023-11-21T03:50:52;100951.22;;;11.06;100.00
58534;BME280;44109;52.398;7.024;2023-11-21T03:53:19;100950.03;;;11.07;100.00
58534;BME280;44109;52.398;7.024;2023-11-21T03:55:47;100952.38;;;11.05;100.00
58534;BME280;44109;52.398;7.024;2023-11-21T03:58:15;100959.13;;;11.04;100.00
58534;BME280;44109;52.398;7.024;2023-11-21T04:00:42;100958.66;;;11.02;100.00
58534;BME280;44109;52.398;7.024;2023-11-21T04:03:10;100956.06;;;10.89;100.00
58534;BME280;44109;52.398;7.024;2023-11-21T04:05:37;100947.72;;;10.89;100.00
58534;BME280;44109;52.398;7.024;2023-11-21T04:08:06;100960.38;;;10.87;100.00
58534;BME280;44109;52.398;7.024;2023-11-21T04:10:33;100958.25;;;10.80;100.00
58534;BME280;44109;52.398;7.024;2023-11-21T04:13:01;100964.56;;;10.77;100.00
58534;BME280;44109;52.398;7.024;2023-11-21T04:15:28;100964.91;;;10.76;100.00
58534;BME280;44109;52.398;7.024;2023-11-21T04:17:55;100966.47;;;10.73;100.00
58534;BME280;44109;52.398;7.024;2023-11-21T04:20:23;100968.44;;;10.73;100.00
58534;BME280;44109;52.398;7.024;2023-11-21T04:22:51;100973.19;;;10.72;100.00
58534;BME280;44109;52.398;7.024;2023-11-21T04:25:20;100981.16;;;10.74;100.00
58534;BME280;44109;52.398;7.024;2023-11-21T04:27:49;100988.66;;;10.73;100.00
58534;BME280;44109;52.398;7.024;2023-11-21T04:30:16;100991.44;;;10.73;100.00
58534;BME280;44109;52.398;7.024;2023-11-21T04:32:43;100985.81;;;10.70;100.00
58534;BME280;44109;52.398;7.024;2023-11-21T04:35:11;100997.63;;;10.66;100.00
58534;BME280;44109;52.398;7.024;2023-11-21T04:37:38;100994.22;;;10.73;100.00
58534;BME280;44109;52.398;7.024;2023-11-21T04:40:07;101007.41;;;10.80;100.00
58534;BME280;44109;52.398;7.024;2023-11-21T04:42:36;101001.06;;;10.79;100.00
58534;BME280;44109;52.398;7.024;2023-11-21T04:45:05;101004.28;;;10.81;100.00
58534;BME280;44109;52.398;7.024;2023-11-21T04:47:35;101008.22;;;10.80;100.00
58534;BME280;44109;52.398;7.024;2023-11-21T04:50:04;101012.25;;;10.83;100.00
58534;BME280;44109;52.398;7.024;2023-11-21T04:52:33;101016.13;;;10.78;100.00
58534;BME280;44109;52.398;7.024;2023-11-21T04:55:00;101018.59;;;10.83;100.00
58534;BME280;44109;52.398;7.024;2023-11-21T04:57:28;101017.78;;;10.83;100.00
58534;BME280;44109;52.398;7.024;2023-11-21T04:59:57;101024.53;;;10.82;100.00
58534;BME280;44109;52.398;7.024;2023-11-21T05:02:24;101028.50;;;10.84;100.00
58534;BME280;44109;52.398;7.024;2023-11-21T05:04:52;101034.88;;;10.85;100.00
58534;BME280;44109;52.398;7.024;2023-11-21T05:07:20;101034.94;;;10.88;100.00
58534;BME280;44109;52.398;7.024;2023-11-21T05:09:48;101034.56;;;10.90;100.00
58534;BME280;44109;52.398;7.024;2023-11-21T05:12:16;101037.00;;;10.91;100.00
58534;BME280;44109;52.398;7.024;2023-11-21T05:14:43;101041.81;;;10.95;100.00
58534;BME280;44109;52.398;7.024;2023-11-21T05:17:12;101001.50;;;10.62;100.00
58534;BME280;44109;52.398;7.024;2023-11-21T05:19:39;101048.19;;;10.95;100.00
58534;BME280;44109;52.398;7.024;2023-11-21T05:22:07;101046.63;;;10.98;100.00
58534;BME280;44109;52.398;7.024;2023-11-21T05:24:35;101053.28;;;10.93;100.00
58534;BME280;44109;52.398;7.024;2023-11-21T05:27:02;101063.16;;;10.90;100.00
58534;BME280;44109;52.398;7.024;2023-11-21T05:29:30;101059.53;;;10.90;100.00
58534;BME280;44109;52.398;7.024;2023-11-21T05:31:58;101071.25;;;10.80;100.00
58534;BME280;44109;52.398;7.024;2023-11-21T05:34:26;101074.81;;;10.80;100.00
58534;BME280;44109;52.398;7.024;2023-11-21T05:36:54;101083.22;;;10.84;100.00
58534;BME280;44109;52.398;7.024;2023-11-21T05:39:24;101080.44;;;10.84;100.00
58534;BME280;44109;52.398;7.024;2023-11-21T05:41:51;101084.81;;;10.85;100.00
58534;BME280;44109;52.398;7.024;2023-11-21T05:44:19;101080.22;;;10.73;100.00
58534;BME280;44109;52.398;7.024;2023-11-21T05:46:47;101077.75;;;10.68;100.00
58534;BME280;44109;52.398;7.024;2023-11-21T05:49:14;101080.94;;;10.70;100.00
58534;BME280;44109;52.398;7.024;2023-11-21T05:51:43;101088.38;;;10.66;100.00
58534;BME280;44109;52.398;7.024;2023-11-21T05:54:11;101080.56;;;10.52;100.00
58534;BME280;44109;52.398;7.024;2023-11-21T05:56:38;101085.53;;;10.62;100.00
58534;BME280;44109;52.398;7.024;2023-11-21T05:59:06;101093.50;;;10.64;100.00
58534;BME280;44109;52.398;7.024;2023-11-21T06:01:33;101097.50;;;10.66;100.00
58534;BME280;44109;52.398;7.024;2023-11-21T06:04:04;101107.72;;;10.62;100.00
58534;BME280;44109;52.398;7.024;2023-11-21T06:06:34;101113.81;;;10.68;100.00
58534;BME280;44109;52.398;7.024;2023-11-21T06:09:03;101115.84;;;10.71;100.00
58534;BME280;44109;52.398;7.024;2023-11-21T06:11:31;101126.22;;;10.74;100.00
58534;BME280;44109;52.398;7.024;2023-11-21T06:13:58;101119.06;;;10.73;100.00
58534;BME280;44109;52.398;7.024;2023-11-21T06:16:25;101127.13;;;10.78;100.00
58534;BME280;44109;52.398;7.024;2023-11-21T06:18:53;101136.13;;;10.56;100.00
58534;BME280;44109;52.398;7.024;2023-11-21T06:21:21;101127.44;;;10.57;100.00
58534;BME280;44109;52.398;7.024;2023-11-21T06:23:48;101134.38;;;10.67;100.00
58534;BME280;44109;52.398;7.024;2023-11-21T06:26:17;101140.09;;;10.74;100.00
58534;BME280;44109;52.398;7.024;2023-11-21T06:28:44;101145.38;;;10.79;100.00
58534;BME280;44109;52.398;7.024;2023-11-21T06:31:12;101133.75;;;10.74;100.00
58534;BME280;44109;52.398;7.024;2023-11-21T06:33:40;101154.06;;;10.78;100.00
58534;BME280;44109;52.398;7.024;2023-11-21T06:36:08;101160.94;;;10.84;100.00
58534;BME280;44109;52.398;7.024;2023-11-21T06:38:37;101166.09;;;10.85;100.00
58534;BME280;44109;52.398;7.024;2023-11-21T06:41:06;101169.25;;;10.84;100.00
58534;BME280;44109;52.398;7.024;2023-11-21T06:43:34;101176.06;;;10.86;100.00
58534;BME280;44109;52.398;7.024;2023-11-21T06:46:02;101176.06;;;10.86;100.00
58534;BME280;44109;52.398;7.024;2023-11-21T06:48:30;101174.88;;;10.87;100.00
58534;BME280;44109;52.398;7.024;2023-11-21T06:50:57;101189.19;;;10.89;100.00
58534;BME280;44109;52.398;7.024;2023-11-21T06:53:25;101194.41;;;10.91;100.00
58534;BME280;44109;52.398;7.024;2023-11-21T06:55:52;101172.81;;;10.84;100.00
58534;BME280;44109;52.398;7.024;2023-11-21T06:58:19;101186.78;;;10.88;100.00
58534;BME280;44109;52.398;7.024;2023-11-21T07:00:48;101198.09;;;10.79;100.00
58534;BME280;44109;52.398;7.024;2023-11-21T07:03:16;101207.69;;;10.66;100.00
58534;BME280;44109;52.398;7.024;2023-11-21T07:05:45;101204.31;;;10.57;100.00
58534;BME280;44109;52.398;7.024;2023-11-21T07:08:12;101210.13;;;10.52;100.00
58534;BME280;44109;52.398;7.024;2023-11-21T07:10:40;101206.38;;;10.60;100.00
58534;BME280;44109;52.398;7.024;2023-11-21T07:13:07;101219.44;;;10.59;100.00
58534;BME280;44109;52.398;7.024;2023-11-21T07:15:38;101222.72;;;10.65;100.00
58534;BME280;44109;52.398;7.024;2023-11-21T07:18:07;101226.56;;;10.76;100.00
58534;BME280;44109;52.398;7.024;2023-11-21T07:20:34;101229.50;;;10.83;100.00
58534;BME280;44109;52.398;7.024;2023-11-21T07:23:02;101234.53;;;10.78;100.00
58534;BME280;44109;52.398;7.024;2023-11-21T07:25:31;101229.09;;;10.65;100.00
58534;BME280;44109;52.398;7.024;2023-11-21T07:27:59;101237.22;;;10.74;100.00
58534;BME280;44109;52.398;7.024;2023-11-21T07:30:27;101246.59;;;10.85;100.00
58534;BME280;44109;52.398;7.024;2023-11-21T07:32:54;101250.78;;;10.95;100.00
58534;BME280;44109;52.398;7.024;2023-11-21T07:35:23;101253.72;;;11.02;100.00
58534;BME280;44109;52.398;7.024;2023-11-21T07:37:50;101253.38;;;11.04;100.00
58534;BME280;44109;52.398;7.024;2023-11-21T07:40:18;101263.22;;;10.85;100.00
58534;BME280;44109;52.398;7.024;2023-11-21T07:42:45;101259.97;;;10.64;100.00
58534;BME280;44109;52.398;7.024;2023-11-21T07:45:13;101274.66;;;10.64;100.00
58534;BME280;44109;52.398;7.024;2023-11-21T07:47:41;101275.47;;;10.49;100.00
58534;BME280;44109;52.398;7.024;2023-11-21T07:50:09;101278.41;;;10.40;100.00
58534;BME280;44109;52.398;7.024;2023-11-21T07:52:38;101290.56;;;10.52;100.00
58534;BME280;44109;52.398;7.024;2023-11-21T07:55:06;101294.59;;;10.70;100.00
58534;BME280;44109;52.398;7.024;2023-11-21T07:57:34;101295.91;;;10.76;100.00
58534;BME280;44109;52.398;7.024;2023-11-21T08:00:02;101304.00;;;10.50;100.00
58534;BME280;44109;52.398;7.024;2023-11-21T08:02:32;101303.56;;;10.63;100.00
58534;BME280;44109;52.398;7.024;2023-11-21T08:05:00;101314.72;;;10.67;100.00
58534;BME280;44109;52.398;7.024;2023-11-21T08:07:27;101314.72;;;10.67;100.00
58534;BME280;44109;52.398;7.024;2023-11-21T08:09:56;101307.13;;;10.64;100.00
58534;BME280;44109;52.398;7.024;2023-11-21T08:12:24;101319.41;;;10.63;100.00
58534;BME280;44109;52.398;7.024;2023-11-21T08:14:53;101324.38;;;10.57;100.00
58534;BME280;44109;52.398;7.024;2023-11-21T08:17:21;101334.72;;;10.73;100.00
58534;BME280;44109;52.398;7.024;2023-11-21T08:19:49;101340.59;;;10.71;100.00
58534;BME280;44109;52.398;7.024;2023-11-21T08:22:17;101347.59;;;10.65;100.00
58534;BME280;44109;52.398;7.024;2023-11-21T08:24:44;101282.97;;;10.05;100.00
58534;BME280;44109;52.398;7.024;2023-11-21T08:27:14;101353.78;;;10.30;100.00
58534;BME280;44109;52.398;7.024;2023-11-21T08:29:42;101359.78;;;10.04;100.00
58534;BME280;44109;52.398;7.024;2023-11-21T08:32:09;101351.50;;;10.20;100.00
58534;BME280;44109;52.398;7.024;2023-11-21T08:34:36;101354.00;;;10.37;100.00
58534;BME280;44109;52.398;7.024;2023-11-21T08:37:05;101355.16;;;10.36;100.00
58534;BME280;44109;52.398;7.024;2023-11-21T08:39:33;101351.97;;;10.66;100.00
58534;BME280;44109;52.398;7.024;2023-11-21T08:42:00;101356.97;;;10.76;100.00
58534;BME280;44109;52.398;7.024;2023-11-21T08:44:29;101363.88;;;10.98;100.00
58534;BME280;44109;52.398;7.024;2023-11-21T08:46:57;101373.28;;;11.09;100.00
58534;BME280;44109;52.398;7.024;2023-11-21T08:49:25;101369.25;;;11.07;100.00
58534;BME280;44109;52.398;7.024;2023-11-21T08:51:53;101373.91;;;11.03;100.00
58534;BME280;44109;52.398;7.024;2023-11-21T08:54:21;101378.81;;;10.93;100.00
58534;BME280;44109;52.398;7.024;2023-11-21T08:56:49;101368.06;;;11.08;100.00
58534;BME280;44109;52.398;7.024;2023-11-21T08:59:17;101376.41;;;11.08;100.00
58534;BME280;44109;52.398;7.024;2023-11-21T09:01:47;101384.28;;;11.06;100.00
58534;BME280;44109;52.398;7.024;2023-11-21T09:04:14;101381.78;;;11.01;100.00
58534;BME280;44109;52.398;7.024;2023-11-21T09:06:42;101395.84;;;10.92;100.00
58534;BME280;44109;52.398;7.024;2023-11-21T09:09:09;101389.38;;;11.20;100.00
58534;BME280;44109;52.398;7.024;2023-11-21T09:11:37;101402.91;;;11.21;100.00
58534;BME280;44109;52.398;7.024;2023-11-21T09:14:05;101406.84;;;11.20;100.00
58534;BME280;44109;52.398;7.024;2023-11-21T09:16:32;101405.06;;;11.12;100.00
58534;BME280;44109;52.398;7.024;2023-11-21T09:19:01;101412.47;;;11.39;100.00
58534;BME280;44109;52.398;7.024;2023-11-21T09:21:31;101402.31;;;10.52;100.00
58534;BME280;44109;52.398;7.024;2023-11-21T09:23:59;101421.91;;;11.19;100.00
58534;BME280;44109;52.398;7.024;2023-11-21T09:26:26;101432.09;;;10.83;100.00
58534;BME280;44109;52.398;7.024;2023-11-21T09:28:54;101431.28;;;11.30;100.00
58534;BME280;44109;52.398;7.024;2023-11-21T09:31:22;101424.75;;;11.54;100.00
58534;BME280;44109;52.398;7.024;2023-11-21T09:33:50;101439.41;;;11.71;100.00
58534;BME280;44109;52.398;7.024;2023-11-21T09:36:19;101440.06;;;11.64;100.00
58534;BME280;44109;52.398;7.024;2023-11-21T09:38:48;101435.59;;;11.43;100.00
58534;BME280;44109;52.398;7.024;2023-11-21T09:41:21;101441.94;;;11.60;100.00
58534;BME280;44109;52.398;7.024;2023-11-21T09:43:56;101433.22;;;11.77;100.00
58534;BME280;44109;52.398;7.024;2023-11-21T09:46:27;101442.28;;;11.74;100.00
58534;BME280;44109;52.398;7.024;2023-11-21T09:48:58;101438.59;;;11.70;100.00
58534;BME280;44109;52.398;7.024;2023-11-21T09:51:32;101446.84;;;11.82;100.00
58534;BME280;44109;52.398;7.024;2023-11-21T09:54:04;101447.66;;;11.83;100.00
58534;BME280;44109;52.398;7.024;2023-11-21T09:56:34;101462.09;;;11.73;100.00
58534;BME280;44109;52.398;7.024;2023-11-21T09:59:02;101456.00;;;11.83;100.00
58534;BME280;44109;52.398;7.024;2023-11-21T10:01:36;101457.97;;;11.82;100.00
58534;BME280;44109;52.398;7.024;2023-11-21T10:04:05;101468.34;;;11.85;100.00
58534;BME280;44109;52.398;7.024;2023-11-21T10:06:40;101474.69;;;12.02;100.00
58534;BME280;44109;52.398;7.024;2023-11-21T10:09:09;101479.13;;;12.22;100.00
58534;BME280;44109;52.398;7.024;2023-11-21T10:11:39;101483.94;;;12.25;100.00
58534;BME280;44109;52.398;7.024;2023-11-21T10:14:10;101484.38;;;11.76;100.00
58534;BME280;44109;52.398;7.024;2023-11-21T10:16:40;101487.16;;;11.76;100.00
58534;BME280;44109;52.398;7.024;2023-11-21T10:19:11;101495.34;;;12.01;100.00
58534;BME280;44109;52.398;7.024;2023-11-21T10:21:43;101505.13;;;11.95;100.00
58534;BME280;44109;52.398;7.024;2023-11-21T10:24:11;101485.56;;;11.75;100.00
58534;BME280;44109;52.398;7.024;2023-11-21T10:26:39;101508.25;;;11.93;100.00
58534;BME280;44109;52.398;7.024;2023-11-21T10:29:07;101504.72;;;12.12;100.00
58534;BME280;44109;52.398;7.024;2023-11-21T10:31:38;101507.38;;;12.24;100.00
58534;BME280;44109;52.398;7.024;2023-11-21T10:34:13;101510.66;;;12.30;100.00
58534;BME280;44109;52.398;7.024;2023-11-21T10:36:42;101516.16;;;12.26;100.00
58534;BME280;44109;52.398;7.024;2023-11-21T10:39:14;101517.88;;;12.50;100.00
58534;BME280;44109;52.398;7.024;2023-11-21T10:41:44;101521.94;;;12.17;100.00
58534;BME280;44109;52.398;7.024;2023-11-21T10:44:14;101522.38;;;12.39;100.00
58534;BME280;44109;52.398;7.024;2023-11-21T10:46:46;101523.84;;;12.33;100.00
58534;BME280;44109;52.398;7.024;2023-11-21T10:49:17;101528.13;;;12.11;100.00
58534;BME280;44109;52.398;7.024;2023-11-21T10:51:46;101523.06;;;11.65;100.00
58534;BME280;44109;52.398;7.024;2023-11-21T10:54:17;101533.00;;;11.51;100.00
58534;BME280;44109;52.398;7.024;2023-11-21T10:56:49;101535.06;;;11.22;100.00
58534;BME280;44109;52.398;7.024;2023-11-21T10:59:19;101535.50;;;10.80;100.00
58534;BME280;44109;52.398;7.024;2023-11-21T11:01:51;101533.94;;;10.95;100.00
58534;BME280;44109;52.398;7.024;2023-11-21T11:04:19;101546.03;;;10.34;100.00
58534;BME280;44109;52.398;7.024;2023-11-21T11:06:51;101544.84;;;10.48;100.00
58534;BME280;44109;52.398;7.024;2023-11-21T11:09:22;101543.25;;;10.34;100.00
58534;BME280;44109;52.398;7.024;2023-11-21T11:11:51;101539.53;;;10.83;100.00
58534;BME280;44109;52.398;7.024;2023-11-21T11:14:20;101540.63;;;11.22;100.00
58534;BME280;44109;52.398;7.024;2023-11-21T11:16:53;101550.75;;;10.86;100.00
58534;BME280;44109;52.398;7.024;2023-11-21T11:19:22;101564.06;;;10.40;100.00
58534;BME280;44109;52.398;7.024;2023-11-21T11:22:00;101572.38;;;10.16;100.00
58534;BME280;44109;52.398;7.024;2023-11-21T11:24:53;101577.81;;;9.88;100.00
58534;BME280;44109;52.398;7.024;2023-11-21T11:27:46;101574.38;;;10.28;100.00
58534;BME280;44109;52.398;7.024;2023-11-21T11:30:35;101583.25;;;9.84;100.00
58534;BME280;44109;52.398;7.024;2023-11-21T11:33:21;101582.09;;;10.10;100.00
58534;BME280;44109;52.398;7.024;2023-11-21T11:36:03;101587.84;;;10.54;100.00
58534;BME280;44109;52.398;7.024;2023-11-21T11:38:35;101590.72;;;10.57;100.00
58534;BME280;44109;52.398;7.024;2023-11-21T11:41:04;101586.03;;;10.46;100.00
58534;BME280;44109;52.398;7.024;2023-11-21T11:43:32;101587.97;;;10.85;100.00
58534;BME280;44109;52.398;7.024;2023-11-21T11:46:10;101592.81;;;10.88;100.00
58534;BME280;44109;52.398;7.024;2023-11-21T11:48:40;101593.63;;;10.12;100.00
58534;BME280;44109;52.398;7.024;2023-11-21T11:51:10;101604.97;;;9.82;100.00
58534;BME280;44109;52.398;7.024;2023-11-21T11:53:43;101599.19;;;10.12;100.00
58534;BME280;44109;52.398;7.024;2023-11-21T11:56:28;101608.44;;;9.91;100.00
58534;BME280;44109;52.398;7.024;2023-11-21T11:59:01;101611.22;;;10.28;100.00
58534;BME280;44109;52.398;7.024;2023-11-21T12:01:32;101619.66;;;10.84;100.00
58534;BME280;44109;52.398;7.024;2023-11-21T12:04:25;101623.31;;;11.01;100.00
58534;BME280;44109;52.398;7.024;2023-11-21T12:07:01;101624.09;;;9.75;100.00
58534;BME280;44109;52.398;7.024;2023-11-21T12:09:31;101632.50;;;9.54;100.00
58534;BME280;44109;52.398;7.024;2023-11-21T12:12:00;101628.06;;;9.99;100.00
58534;BME280;44109;52.398;7.024;2023-11-21T12:14:28;101635.56;;;9.98;100.00
58534;BME280;44109;52.398;7.024;2023-11-21T12:16:56;101637.44;;;10.55;100.00
58534;BME280;44109;52.398;7.024;2023-11-21T12:19:23;101639.44;;;10.83;100.00
58534;BME280;44109;52.398;7.024;2023-11-21T12:21:51;101634.31;;;10.97;100.00
58534;BME280;44109;52.398;7.024;2023-11-21T12:24:18;101652.69;;;11.30;100.00
58534;BME280;44109;52.398;7.024;2023-11-21T12:26:47;101649.13;;;11.29;100.00
58534;BME280;44109;52.398;7.024;2023-11-21T12:29:15;101642.38;;;11.30;100.00
58534;BME280;44109;52.398;7.024;2023-11-21T12:31:42;101652.81;;;11.33;100.00
58534;BME280;44109;52.398;7.024;2023-11-21T12:34:10;101665.13;;;11.20;100.00
58534;BME280;44109;52.398;7.024;2023-11-21T12:36:39;101658.81;;;11.07;100.00
58534;BME280;44109;52.398;7.024;2023-11-21T12:39:06;101662.84;;;10.08;100.00
58534;BME280;44109;52.398;7.024;2023-11-21T12:41:35;101670.38;;;10.32;100.00
58534;BME280;44109;52.398;7.024;2023-11-21T12:44:04;101661.59;;;10.43;100.00
58534;BME280;44109;52.398;7.024;2023-11-21T12:46:41;101675.69;;;10.37;100.00
58534;BME280;44109;52.398;7.024;2023-11-21T12:49:11;101674.75;;;10.70;100.00